Time;durP1;ratioP1;P1;durP2;ratioP2;P2;SDS_P1;SDS_P2;PMS_P1;PMS_P2;Temp;Humidity;BMP_temperature;BMP_pressure;BME280_temperature;BME280_humidity;BME280_pressure;Samples;Min_cycle;Max_cycle;Signal;HPM_P1;HPM_P2
2023/10/21 00:00:43;;;;;;;3.40;0.50;;;9.20;99.90;;;;;;5036797;28;20021;-94
2023/10/21 00:03:08;;;;;;;5.50;0.68;;;9.20;99.90;;;;;;5054348;28;20083;-92
2023/10/21 00:05:34;;;;;;;3.22;0.70;;;9.20;99.90;;;;;;5054309;28;20025;-95
2023/10/21 00:08:00;;;;;;;4.10;0.60;;;9.20;99.90;;;;;;5035287;28;20049;-94
2023/10/21 00:10:25;;;;;;;3.65;0.70;;;9.20;99.90;;;;;;5033492;28;20049;-94
2023/10/21 00:12:51;;;;;;;1.95;0.55;;;9.20;99.90;;;;;;5034365;28;20029;-93
2023/10/21 00:15:16;;;;;;;3.15;0.70;;;9.20;99.90;;;;;;5033210;28;20558;-94
2023/10/21 00:17:42;;;;;;;3.92;0.55;;;9.20;99.90;;;;;;5032731;28;20029;-94
2023/10/21 00:20:08;;;;;;;2.42;0.80;;;9.20;99.90;;;;;;5034006;28;20125;-95
2023/10/21 00:22:38;;;;;;;4.95;0.88;;;9.20;99.90;;;;;;5032796;28;20037;-93
2023/10/21 00:25:04;;;;;;;4.85;0.85;;;9.20;99.90;;;;;;5037388;28;20022;-96
2023/10/21 00:27:30;;;;;;;3.65;0.77;;;9.20;99.90;;;;;;5033601;28;20029;-94
2023/10/21 00:29:55;;;;;;;3.72;1.25;;;9.20;99.90;;;;;;5033974;28;20025;-94
2023/10/21 00:32:21;;;;;;;4.80;0.70;;;9.20;99.90;;;;;;5033060;28;20025;-93
2023/10/21 00:34:47;;;;;;;2.05;0.70;;;9.20;99.90;;;;;;5033579;28;20029;-94
2023/10/21 00:37:13;;;;;;;8.02;0.80;;;9.10;99.90;;;;;;5032595;28;20393;-94
2023/10/21 00:39:39;;;;;;;2.78;0.70;;;9.20;99.90;;;;;;5032590;28;20389;-93
2023/10/21 00:42:05;;;;;;;2.78;0.65;;;9.20;99.90;;;;;;5033205;28;20030;-93
2023/10/21 00:44:31;;;;;;;2.15;0.70;;;9.20;99.90;;;;;;5031992;28;20022;-92
2023/10/21 00:47:00;;;;;;;3.90;0.80;;;9.20;99.90;;;;;;5023630;28;20109;-94
2023/10/21 00:49:28;;;;;;;2.20;0.52;;;9.20;99.90;;;;;;5032478;28;20033;-95
2023/10/21 00:51:55;;;;;;;4.57;1.08;;;9.20;99.90;;;;;;5034070;28;20478;-95
2023/10/21 00:54:21;;;;;;;2.25;0.55;;;9.10;99.90;;;;;;5035877;28;20038;-95
2023/10/21 00:56:47;;;;;;;4.50;0.70;;;9.10;99.90;;;;;;5039877;28;20084;-95
2023/10/21 00:59:13;;;;;;;5.32;0.73;;;9.10;99.90;;;;;;5039799;28;20029;-93
2023/10/21 01:01:39;;;;;;;1.00;0.47;;;9.10;99.90;;;;;;5037552;28;20056;-96
2023/10/21 01:04:05;;;;;;;4.82;0.90;;;9.10;99.90;;;;;;5038581;28;20025;-96
2023/10/21 01:06:34;;;;;;;4.50;0.50;;;9.10;99.90;;;;;;5035322;28;20052;-94
2023/10/21 01:09:00;;;;;;;2.10;0.60;;;9.10;99.90;;;;;;5036882;28;20184;-95
2023/10/21 01:11:25;;;;;;;5.38;0.55;;;9.10;99.90;;;;;;5037418;28;20040;-95
2023/10/21 01:13:51;;;;;;;0.90;0.38;;;9.10;99.90;;;;;;5036600;28;20493;-96
2023/10/21 01:16:17;;;;;;;2.17;0.40;;;9.10;99.90;;;;;;5053813;28;20100;-94
2023/10/21 01:18:43;;;;;;;2.75;0.50;;;9.10;99.90;;;;;;5036756;28;20088;-94
2023/10/21 01:21:10;;;;;;;3.50;0.70;;;9.10;99.90;;;;;;5039364;28;20667;-95
2023/10/21 01:23:36;;;;;;;1.75;0.43;;;9.10;99.90;;;;;;5056999;28;20108;-95
2023/10/21 01:26:04;;;;;;;1.42;0.90;;;9.10;99.90;;;;;;5039835;28;20481;-95
2023/10/21 01:28:30;;;;;;;2.25;0.40;;;9.10;99.90;;;;;;5039374;28;20297;-95
2023/10/21 01:30:55;;;;;;;4.05;0.80;;;9.20;99.90;;;;;;5039338;28;20078;-96
2023/10/21 01:33:21;;;;;;;3.72;0.70;;;9.20;99.90;;;;;;5039327;28;20037;-94
2023/10/21 01:35:47;;;;;;;3.95;0.70;;;9.20;99.90;;;;;;5039443;28;20026;-94
2023/10/21 01:38:15;;;;;;;3.42;0.40;;;9.20;99.90;;;;;;5057399;28;20044;-96
2023/10/21 01:40:40;;;;;;;2.72;0.55;;;9.20;99.90;;;;;;5065022;28;20025;-94
2023/10/21 01:43:06;;;;;;;3.70;0.40;;;9.20;99.90;;;;;;5067837;28;20140;-94
2023/10/21 01:45:35;;;;;;;4.97;0.60;;;9.20;99.90;;;;;;5061015;28;20026;-94
2023/10/21 01:48:01;;;;;;;3.92;0.52;;;9.20;99.90;;;;;;5040459;28;20033;-95
2023/10/21 01:50:28;;;;;;;7.28;0.68;;;9.10;99.90;;;;;;5056914;28;20129;-95
2023/10/21 01:52:55;;;;;;;6.30;1.10;;;9.10;99.90;;;;;;5039391;28;20033;-94
2023/10/21 01:55:20;;;;;;;2.97;0.50;;;9.10;99.90;;;;;;5056823;28;20028;-95
2023/10/21 01:57:46;;;;;;;3.28;0.65;;;9.00;99.90;;;;;;5038832;28;20021;-95
2023/10/21 02:00:12;;;;;;;2.55;0.82;;;9.00;99.90;;;;;;5056426;28;20075;-95
2023/10/21 02:02:38;;;;;;;1.80;0.30;;;9.00;99.90;;;;;;5057162;28;20066;-96
2023/10/21 02:05:06;;;;;;;1.38;0.40;;;9.00;99.90;;;;;;5057383;28;20104;-94
2023/10/21 02:07:37;;;;;;;4.38;0.50;;;8.90;99.90;;;;;;5038993;28;20041;-96
2023/10/21 02:10:03;;;;;;;3.50;0.63;;;8.90;99.90;;;;;;5038953;28;20599;-94
2023/10/21 02:12:32;;;;;;;0.90;0.25;;;8.90;99.90;;;;;;5038553;28;20123;-95
2023/10/21 02:14:58;;;;;;;1.80;0.22;;;8.90;99.90;;;;;;5038260;28;20024;-94
2023/10/21 02:17:24;;;;;;;0.35;0.28;;;8.90;99.90;;;;;;5056600;28;20028;-95
2023/10/21 02:19:56;;;;;;;2.88;0.43;;;8.80;99.90;;;;;;5061040;28;20090;-93
2023/10/21 02:22:23;;;;;;;1.35;0.40;;;8.80;99.90;;;;;;5055833;28;20021;-94
2023/10/21 02:24:50;;;;;;;0.88;0.30;;;8.80;99.90;;;;;;5038302;28;20114;-94
2023/10/21 02:27:15;;;;;;;1.77;0.30;;;8.80;99.90;;;;;;5037654;28;20397;-94
2023/10/21 02:29:41;;;;;;;2.05;0.20;;;8.80;99.90;;;;;;5037933;28;20032;-94
2023/10/21 02:32:06;;;;;;;1.25;0.20;;;8.70;99.90;;;;;;5036722;28;20032;-96
2023/10/21 02:34:32;;;;;;;1.95;0.22;;;8.70;99.90;;;;;;5055149;28;20473;-94
2023/10/21 02:36:58;;;;;;;0.63;0.10;;;8.70;99.90;;;;;;5037636;28;20080;-93
2023/10/21 02:39:23;;;;;;;0.65;0.20;;;8.70;99.90;;;;;;5055384;28;20331;-95
2023/10/21 02:41:49;;;;;;;0.82;0.17;;;8.70;99.90;;;;;;5037501;28;20040;-94
2023/10/21 02:44:15;;;;;;;1.95;0.20;;;8.70;99.90;;;;;;5037671;28;20111;-93
2023/10/21 02:46:40;;;;;;;0.60;0.30;;;8.70;99.90;;;;;;5055357;28;20359;-94
2023/10/21 02:49:06;;;;;;;1.63;0.28;;;8.60;99.90;;;;;;5038033;28;20072;-94
2023/10/21 02:51:31;;;;;;;1.45;1.25;;;8.60;99.90;;;;;;5037742;28;20610;-94
2023/10/21 02:53:57;;;;;;;3.30;0.43;;;8.60;99.90;;;;;;5055812;28;20040;-95
2023/10/21 02:56:23;;;;;;;1.42;0.40;;;8.60;99.90;;;;;;5055995;28;20032;-94
2023/10/21 02:58:49;;;;;;;2.03;0.47;;;8.60;99.90;;;;;;5037448;28;20082;-94
2023/10/21 03:01:19;;;;;;;1.23;0.40;;;8.60;99.90;;;;;;5055429;28;20021;-94
2023/10/21 03:03:46;;;;;;;;;;;8.60;99.90;;;;;;5055787;28;20025;-94
2023/10/21 03:06:13;;;;;;;2.83;0.32;;;8.60;99.90;;;;;;5055017;28;20334;-94
2023/10/21 03:08:39;;;;;;;1.27;0.32;;;8.60;99.90;;;;;;5037122;28;20076;-94
2023/10/21 03:11:06;;;;;;;4.28;0.40;;;8.60;99.90;;;;;;5036897;28;20070;-93
2023/10/21 03:13:32;;;;;;;2.80;0.50;;;8.60;99.90;;;;;;5054795;28;20025;-95
2023/10/21 03:15:58;;;;;;;2.10;0.38;;;8.50;99.90;;;;;;5037177;28;20290;-94
2023/10/21 03:18:24;;;;;;;1.85;0.40;;;8.50;99.90;;;;;;5055633;28;20059;-93
2023/10/21 03:20:52;;;;;;;1.38;0.30;;;8.50;99.90;;;;;;5038333;28;20541;-94
2023/10/21 03:23:18;;;;;;;2.22;0.32;;;8.50;99.90;;;;;;5055728;28;20028;-94
2023/10/21 03:25:54;;;;;;;1.58;0.25;;;8.50;99.90;;;;;;5037144;28;20076;-94
2023/10/21 03:28:21;;;;;;;0.30;0.20;;;8.50;99.90;;;;;;5036887;28;20033;-92
2023/10/21 03:30:48;;;;;;;0.75;0.20;;;8.50;99.90;;;;;;5036538;28;20486;-94
2023/10/21 03:33:14;;;;;;;2.10;0.30;;;8.50;99.90;;;;;;5036663;28;20036;-94
2023/10/21 03:35:39;;;;;;;0.40;0.13;;;8.50;99.90;;;;;;5036746;28;20052;-94
2023/10/21 03:38:05;;;;;;;0.65;0.20;;;8.50;99.90;;;;;;5053380;28;20032;-95
2023/10/21 03:40:31;;;;;;;2.17;0.25;;;8.50;99.90;;;;;;5054003;28;20021;-93
2023/10/21 03:42:56;;;;;;;1.17;0.20;;;8.50;99.90;;;;;;5036265;28;20109;-93
2023/10/21 03:45:22;;;;;;;0.98;0.22;;;8.50;99.90;;;;;;5035787;28;20570;-95
2023/10/21 03:47:48;;;;;;;2.72;0.40;;;8.50;99.90;;;;;;5053606;28;20025;-93
2023/10/21 03:50:14;;;;;;;2.85;0.20;;;8.50;99.90;;;;;;5036525;28;20048;-93
2023/10/21 03:52:40;;;;;;;2.58;0.30;;;8.50;99.90;;;;;;5035884;28;20466;-94
2023/10/21 03:55:06;;;;;;;1.77;0.30;;;8.50;99.90;;;;;;5036484;28;20040;-93
2023/10/21 03:57:31;;;;;;;1.17;0.30;;;8.50;99.90;;;;;;5056686;28;20094;-93
2023/10/21 04:00:00;;;;;;;1.35;0.20;;;8.50;99.90;;;;;;5055860;28;20470;-94
2023/10/21 04:02:25;;;;;;;0.63;0.20;;;8.50;99.90;;;;;;5038426;28;20115;-93
2023/10/21 04:04:51;;;;;;;0.93;0.20;;;8.50;99.90;;;;;;5058455;28;20058;-93
2023/10/21 04:07:16;;;;;;;2.42;0.20;;;8.50;99.90;;;;;;5055995;28;20096;-93
2023/10/21 04:09:42;;;;;;;2.35;0.32;;;8.50;99.90;;;;;;5038109;28;20049;-92
2023/10/21 04:12:09;;;;;;;0.63;0.20;;;8.50;99.90;;;;;;5037327;28;20052;-94
2023/10/21 04:14:35;;;;;;;2.20;0.20;;;8.50;99.90;;;;;;5054351;28;20021;-96
2023/10/21 04:17:00;;;;;;;1.23;0.30;;;8.40;99.90;;;;;;5053904;28;20025;-94
2023/10/21 04:19:26;;;;;;;0.40;0.40;;;8.40;99.90;;;;;;5036802;28;20056;-94
2023/10/21 04:21:52;;;;;;;0.13;0.10;;;8.40;99.90;;;;;;5036124;28;20021;-94
2023/10/21 04:24:18;;;;;;;0.15;0.13;;;8.40;99.90;;;;;;5036917;28;20029;-94
2023/10/21 04:26:44;;;;;;;0.80;0.17;;;8.40;99.90;;;;;;5036719;28;20029;-95
2023/10/21 04:29:09;;;;;;;2.17;0.30;;;8.40;99.90;;;;;;5036248;28;20055;-95
2023/10/21 04:31:37;;;;;;;0.95;0.20;;;8.40;99.90;;;;;;5054209;28;20491;-95
2023/10/21 04:34:03;;;;;;;1.10;0.20;;;8.40;99.90;;;;;;5054358;28;20076;-93
2023/10/21 04:36:29;;;;;;;0.30;0.20;;;8.40;99.90;;;;;;5036817;28;20089;-95
2023/10/21 04:38:54;;;;;;;1.38;0.10;;;8.40;99.90;;;;;;5037042;28;20017;-94
2023/10/21 04:41:20;;;;;;;1.13;0.28;;;8.40;99.90;;;;;;5054401;28;20032;-94
2023/10/21 04:43:46;;;;;;;3.97;0.20;;;8.40;99.90;;;;;;5036682;28;20028;-93
2023/10/21 04:46:12;;;;;;;0.73;0.20;;;8.30;99.90;;;;;;5054404;28;20025;-93
2023/10/21 04:48:38;;;;;;;0.73;0.20;;;8.40;99.90;;;;;;5054307;28;20043;-96
2023/10/21 04:51:03;;;;;;;2.53;0.30;;;8.40;99.90;;;;;;5036585;28;20025;-95
2023/10/21 04:53:30;;;;;;;1.48;0.45;;;8.40;99.90;;;;;;5054812;28;20032;-95
2023/10/21 04:55:55;;;;;;;2.55;0.40;;;8.40;99.90;;;;;;5040122;28;20567;-94
2023/10/21 04:58:21;;;;;;;1.85;0.35;;;8.40;99.90;;;;;;5044937;28;20029;-94
2023/10/21 05:00:47;;;;;;;1.85;0.40;;;8.40;99.90;;;;;;5061486;28;20033;-92
2023/10/21 05:03:12;;;;;;;9.98;1.80;;;8.30;99.90;;;;;;5056302;28;20120;-94
2023/10/21 05:05:39;;;;;;;2.95;0.35;;;8.40;99.90;;;;;;5040913;28;20462;-92
2023/10/21 05:08:05;;;;;;;1.98;0.40;;;8.40;99.90;;;;;;5039482;28;20543;-94
2023/10/21 05:10:30;;;;;;;3.30;0.55;;;8.40;99.90;;;;;;5046133;28;20052;-92
2023/10/21 05:12:56;;;;;;;0.65;0.32;;;8.40;99.90;;;;;;5045011;28;20556;-94
2023/10/21 05:15:23;;;;;;;2.08;0.60;;;8.30;99.90;;;;;;5039950;28;20036;-94
2023/10/21 05:17:49;;;;;;;2.78;0.30;;;8.40;99.90;;;;;;5039702;28;20031;-94
2023/10/21 05:20:15;;;;;;;2.63;0.57;;;8.30;99.90;;;;;;5039441;28;20025;-94
2023/10/21 05:22:40;;;;;;;2.63;0.40;;;8.40;99.90;;;;;;5057511;28;20025;-93
2023/10/21 05:25:09;;;;;;;2.03;0.50;;;8.40;99.90;;;;;;5039228;28;20031;-93
2023/10/21 05:27:35;;;;;;;4.93;1.05;;;8.40;99.90;;;;;;5056352;28;20462;-95
2023/10/21 05:30:01;;;;;;;3.50;0.43;;;8.40;99.90;;;;;;5056812;28;20108;-93
2023/10/21 05:32:26;;;;;;;5.50;1.23;;;8.40;99.90;;;;;;5057253;28;20499;-92
2023/10/21 05:34:52;;;;;;;2.88;0.47;;;8.40;99.90;;;;;;5038796;28;20386;-93
2023/10/21 05:37:17;;;;;;;2.17;0.55;;;8.40;99.90;;;;;;5056009;28;20509;-93
2023/10/21 05:39:43;;;;;;;2.58;0.50;;;8.40;99.90;;;;;;5056537;28;20033;-93
2023/10/21 05:42:09;;;;;;;2.42;0.32;;;8.40;99.90;;;;;;5038572;28;20071;-93
2023/10/21 05:44:35;;;;;;;4.30;0.70;;;8.40;99.90;;;;;;5056685;28;20113;-93
2023/10/21 05:47:00;;;;;;;1.85;0.50;;;8.40;99.90;;;;;;5038955;28;20119;-94
2023/10/21 05:49:26;;;;;;;1.95;0.60;;;8.40;99.90;;;;;;5038613;28;20369;-94
2023/10/21 05:51:52;;;;;;;1.15;0.30;;;8.40;99.90;;;;;;5038393;28;20052;-95
2023/10/21 05:54:17;;;;;;;2.55;0.40;;;8.40;99.90;;;;;;5038707;28;20025;-93
2023/10/21 05:56:43;;;;;;;1.90;0.50;;;8.40;99.90;;;;;;5055922;28;20017;-94
2023/10/21 05:59:09;;;;;;;3.88;0.43;;;8.40;99.90;;;;;;5056351;28;20034;-96
2023/10/21 06:01:34;;;;;;;2.70;0.40;;;8.40;99.90;;;;;;5055559;28;20075;-94
2023/10/21 06:04:00;;;;;;;4.30;0.47;;;8.40;99.90;;;;;;5056234;28;20090;-96
2023/10/21 06:06:25;;;;;;;2.60;0.40;;;8.40;99.90;;;;;;5039572;28;20064;-96
2023/10/21 06:08:52;;;;;;;3.20;0.63;;;8.40;99.90;;;;;;5039569;28;20040;-94
2023/10/21 06:11:18;;;;;;;0.57;0.30;;;8.40;99.90;;;;;;5058066;28;20083;-94
2023/10/21 06:13:43;;;;;;;2.00;0.40;;;8.40;99.90;;;;;;5040225;28;20597;-94
2023/10/21 06:16:09;;;;;;;2.17;0.40;;;8.40;99.90;;;;;;5043353;28;20028;-94
2023/10/21 06:18:36;;;;;;;1.45;0.20;;;8.40;99.90;;;;;;5043783;28;20025;-93
2023/10/21 06:21:02;;;;;;;1.02;0.35;;;8.30;99.90;;;;;;5057690;28;20033;-94
2023/10/21 06:23:28;;;;;;;1.80;0.30;;;8.40;99.90;;;;;;5036127;28;20462;-95
2023/10/21 06:25:54;;;;;;;1.05;0.38;;;8.30;99.90;;;;;;5051148;28;20048;-95
2023/10/21 06:28:20;;;;;;;1.45;0.30;;;8.30;99.90;;;;;;5025148;28;20087;-96
2023/10/21 06:30:46;;;;;;;0.68;0.30;;;8.30;99.90;;;;;;5042477;28;20017;-94
2023/10/21 06:33:11;;;;;;;1.20;0.57;;;8.30;99.90;;;;;;5054981;28;20047;-93
2023/10/21 06:35:38;;;;;;;4.43;0.57;;;8.30;99.90;;;;;;5044446;28;20029;-92
2023/10/21 06:38:05;;;;;;;0.40;0.35;;;8.30;99.90;;;;;;5044301;28;20029;-95
2023/10/21 06:40:31;;;;;;;0.90;0.40;;;8.30;99.90;;;;;;5028776;28;20025;-95
2023/10/21 06:42:57;;;;;;;2.85;0.50;;;8.30;99.90;;;;;;5037541;28;20048;-94
2023/10/21 06:45:23;;;;;;;0.63;0.20;;;8.30;99.90;;;;;;5020433;28;20468;-94
2023/10/21 06:47:49;;;;;;;1.50;0.40;;;8.30;99.90;;;;;;5038458;28;20044;-95
2023/10/21 06:50:14;;;;;;;1.65;0.20;;;8.30;99.90;;;;;;5046949;28;20049;-95
2023/10/21 06:52:40;;;;;;;1.00;0.30;;;8.30;99.90;;;;;;5037741;28;20032;-94
2023/10/21 06:55:08;;;;;;;0.43;0.30;;;8.40;99.90;;;;;;5055296;28;20040;-95
2023/10/21 06:57:34;;;;;;;0.47;0.32;;;8.40;99.90;;;;;;5050301;28;20025;-95
2023/10/21 06:59:59;;;;;;;1.73;0.38;;;8.40;99.90;;;;;;5060902;28;20078;-96
2023/10/21 07:02:25;;;;;;;3.17;0.40;;;8.40;99.90;;;;;;5060762;28;20031;-96
2023/10/21 07:04:51;;;;;;;2.13;0.50;;;8.40;99.90;;;;;;5039784;28;20359;-95
2023/10/21 07:07:17;;;;;;;2.47;1.58;;;8.40;99.90;;;;;;5038917;28;20107;-95
2023/10/21 07:09:42;;;;;;;1.83;0.40;;;8.40;99.90;;;;;;5053398;28;20053;-95
2023/10/21 07:12:08;;;;;;;0.95;0.60;;;8.40;99.90;;;;;;5037454;28;20029;-94
2023/10/21 07:14:33;;;;;;;0.40;0.22;;;8.40;99.90;;;;;;5039782;28;20029;-96
2023/10/21 07:17:02;;;;;;;1.13;0.40;;;8.40;99.90;;;;;;5041519;28;20036;-95
2023/10/21 07:19:29;;;;;;;0.93;0.57;;;8.40;99.90;;;;;;5060479;28;20051;-94
2023/10/21 07:21:55;;;;;;;1.40;0.80;;;8.40;99.90;;;;;;5036486;28;20024;-95
2023/10/21 07:24:21;;;;;;;0.77;0.60;;;8.40;99.90;;;;;;5064225;28;20078;-96
2023/10/21 07:26:46;;;;;;;1.33;0.55;;;8.40;99.90;;;;;;5060768;28;20025;-92
2023/10/21 07:29:12;;;;;;;3.05;0.63;;;8.40;99.90;;;;;;5048783;28;20036;-93
2023/10/21 07:31:39;;;;;;;0.93;0.47;;;8.40;99.90;;;;;;5041540;28;20039;-96
2023/10/21 07:34:05;;;;;;;2.13;0.80;;;8.40;99.90;;;;;;5068912;28;20032;-93
2023/10/21 07:36:30;;;;;;;1.30;0.60;;;8.40;99.90;;;;;;5068939;28;20017;-94
2023/10/21 07:38:57;;;;;;;2.08;0.70;;;8.50;99.90;;;;;;5042522;28;20052;-96
2023/10/21 07:41:23;;;;;;;4.35;1.00;;;8.50;99.90;;;;;;5038697;28;20036;-94
2023/10/21 07:43:49;;;;;;;2.53;0.88;;;8.50;99.90;;;;;;5039703;28;20029;-94
2023/10/21 07:46:15;;;;;;;1.90;0.82;;;8.50;99.90;;;;;;5056796;28;20060;-94
2023/10/21 07:48:40;;;;;;;1.83;0.82;;;8.50;99.90;;;;;;5059164;28;20040;-96
2023/10/21 07:51:06;;;;;;;1.48;0.75;;;8.50;99.90;;;;;;5057326;28;20052;-96
2023/10/21 07:53:32;;;;;;;2.92;0.60;;;8.60;99.90;;;;;;5042111;28;20155;-96
2023/10/21 07:55:57;;;;;;;2.35;0.45;;;8.60;99.90;;;;;;5061119;28;20025;-94
2023/10/21 07:58:23;;;;;;;2.60;0.50;;;8.60;99.90;;;;;;5039507;28;20037;-95
2023/10/21 08:00:49;;;;;;;2.10;0.50;;;8.60;99.90;;;;;;5054058;28;20025;-93
2023/10/21 08:03:14;;;;;;;4.88;0.75;;;8.60;99.90;;;;;;5077412;28;20048;-91
2023/10/21 08:05:41;;;;;;;2.03;0.80;;;8.60;99.90;;;;;;5036614;28;20037;-95
2023/10/21 16:29:14;;;;;;;5.25;1.83;;;11.00;99.90;;;;;;5134976;27;20399;-94
2023/10/21 16:31:41;;;;;;;1.98;0.95;;;10.90;99.90;;;;;;5133757;28;20015;-95
2023/10/21 16:34:07;;;;;;;1.80;0.60;;;10.90;99.90;;;;;;5133609;28;20008;-91
2023/10/21 16:36:32;;;;;;;1.10;0.63;;;10.90;99.90;;;;;;5134117;28;20036;-91
2023/10/21 16:38:58;;;;;;;1.65;0.50;;;10.90;99.90;;;;;;5135533;28;20019;-91
2023/10/21 16:41:24;;;;;;;0.63;0.40;;;10.80;99.90;;;;;;5134897;27;20027;-89
2023/10/21 16:43:52;;;;;;;0.88;0.40;;;10.70;99.90;;;;;;5136129;28;20008;-91
2023/10/21 16:46:18;;;;;;;1.85;0.50;;;10.70;99.90;;;;;;5135416;28;20012;-93
2023/10/21 16:48:44;;;;;;;0.65;0.40;;;10.60;99.90;;;;;;5135372;28;20048;-90
2023/10/21 16:51:09;;;;;;;2.00;0.70;;;10.50;99.90;;;;;;5135700;28;20034;-92
2023/10/21 16:53:35;;;;;;;1.33;1.13;;;10.50;99.90;;;;;;5134774;28;20046;-93
2023/10/21 16:56:02;;;;;;;1.52;0.75;;;10.50;99.90;;;;;;5131642;28;20028;-95
2023/10/21 16:58:28;;;;;;;4.10;0.82;;;10.40;99.90;;;;;;5130153;28;20054;-95
2023/10/21 17:00:54;;;;;;;1.85;0.90;;;10.40;99.90;;;;;;5131431;28;20028;-94
2023/10/21 17:03:20;;;;;;;1.98;0.70;;;10.30;99.90;;;;;;5130661;28;20083;-95
2023/10/21 17:05:45;;;;;;;1.23;0.80;;;10.20;99.90;;;;;;5129986;28;20095;-94
2023/10/21 17:08:11;;;;;;;4.85;0.90;;;10.20;99.90;;;;;;5134283;28;20107;-94
2023/10/21 17:10:37;;;;;;;2.92;1.08;;;10.10;99.90;;;;;;5132540;28;20050;-94
2023/10/21 17:13:02;;;;;;;1.90;0.77;;;10.10;99.90;;;;;;5131526;28;20059;-96
2023/10/21 17:15:28;;;;;;;2.80;1.67;;;10.00;99.90;;;;;;5132181;28;20016;-93
2023/10/21 17:17:56;;;;;;;5.72;2.95;;;9.90;99.90;;;;;;5130648;28;20042;-92
2023/10/21 17:20:22;;;;;;;2.10;1.10;;;9.90;99.90;;;;;;5131097;28;20019;-94
2023/10/21 17:22:51;;;;;;;3.53;0.93;;;9.80;99.90;;;;;;5115321;28;20028;-89
2023/10/21 17:25:16;;;;;;;3.45;1.98;;;9.80;99.90;;;;;;5133093;28;20026;-92
2023/10/21 17:27:42;;;;;;;3.58;1.98;;;9.70;99.90;;;;;;5132877;28;20602;-94
2023/10/21 17:30:08;;;;;;;4.82;1.67;;;9.70;99.90;;;;;;5119054;28;20028;-92
2023/10/21 17:32:35;;;;;;;2.08;1.35;;;9.60;99.90;;;;;;5117907;28;20066;-93
2023/10/21 17:35:01;;;;;;;2.47;1.30;;;9.50;99.90;;;;;;5114484;28;20028;-93
2023/10/21 17:37:27;;;;;;;3.75;1.77;;;9.50;99.90;;;;;;5112405;28;20028;-94
2023/10/21 17:39:52;;;;;;;2.58;1.77;;;9.40;99.90;;;;;;5109612;28;20091;-95
2023/10/21 17:42:18;;;;;;;3.88;1.88;;;9.40;99.90;;;;;;5111656;28;20028;-94
2023/10/21 17:44:45;;;;;;;3.90;1.73;;;9.40;99.90;;;;;;5110890;28;20027;-92
2023/10/21 17:47:10;;;;;;;2.40;1.52;;;9.40;99.90;;;;;;5114920;28;20063;-92
2023/10/21 17:49:37;;;;;;;1.98;0.95;;;9.40;99.90;;;;;;5108532;28;20048;-94
2023/10/21 17:52:03;;;;;;;2.60;1.40;;;9.30;99.90;;;;;;5109661;28;20020;-94
2023/10/21 17:54:29;;;;;;;2.50;1.42;;;9.30;99.90;;;;;;5111662;28;20028;-94
2023/10/21 17:56:55;;;;;;;2.95;1.65;;;9.30;99.90;;;;;;5111507;28;20024;-94
2023/10/21 17:59:21;;;;;;;4.50;2.13;;;9.20;99.90;;;;;;5111268;28;20165;-94
2023/10/21 18:01:47;;;;;;;2.80;1.92;;;9.20;99.90;;;;;;5108013;28;20114;-94
2023/10/21 18:04:12;;;;;;;3.22;2.05;;;9.20;99.90;;;;;;5108153;28;20032;-93
2023/10/21 18:06:38;;;;;;;5.13;1.85;;;9.10;99.90;;;;;;5107203;28;20103;-94
2023/10/21 18:09:07;;;;;;;3.22;1.55;;;9.10;99.90;;;;;;5109298;28;20035;-93
2023/10/21 18:11:33;;;;;;;3.50;1.42;;;9.10;99.90;;;;;;5111347;28;20065;-95
2023/10/21 18:13:58;;;;;;;4.45;1.55;;;9.00;99.90;;;;;;5109363;28;20024;-94
2023/10/21 18:16:24;;;;;;;3.45;1.30;;;9.00;99.90;;;;;;5106370;28;20039;-95
2023/10/21 18:18:51;;;;;;;2.97;1.45;;;9.00;99.90;;;;;;5107852;28;20092;-94
2023/10/21 18:21:18;;;;;;;1.48;0.98;;;8.90;99.90;;;;;;5109693;28;20024;-95
2023/10/21 18:23:44;;;;;;;3.28;1.08;;;8.90;99.90;;;;;;5112356;28;20033;-93
2023/10/21 18:26:11;;;;;;;2.65;1.30;;;8.80;99.90;;;;;;5114138;28;20016;-94
2023/10/21 18:28:36;;;;;;;2.30;1.20;;;8.70;99.90;;;;;;5110892;28;20421;-94
2023/10/21 18:31:04;;;;;;;2.70;1.92;;;8.70;99.90;;;;;;5109402;28;20032;-95
2023/10/21 18:33:31;;;;;;;3.30;1.90;;;8.70;99.90;;;;;;5106848;28;20035;-95
2023/10/21 18:35:57;;;;;;;4.40;1.48;;;8.70;99.90;;;;;;5106586;28;20027;-93
2023/10/21 18:38:24;;;;;;;3.60;1.73;;;8.60;99.90;;;;;;5108111;28;20036;-93
2023/10/21 18:40:50;;;;;;;4.35;1.65;;;8.50;99.90;;;;;;5104485;28;20028;-93
2023/10/21 18:43:16;;;;;;;2.97;1.58;;;8.50;99.90;;;;;;5105568;28;20118;-92
2023/10/21 18:45:42;;;;;;;5.03;1.70;;;8.40;99.90;;;;;;5106273;28;20031;-92
2023/10/21 18:48:08;;;;;;;8.57;2.38;;;8.40;99.90;;;;;;5106598;28;20028;-95
2023/10/21 18:50:34;;;;;;;3.53;2.58;;;8.40;99.90;;;;;;5111122;28;20478;-96
2023/10/21 18:53:03;;;;;;;7.97;4.00;;;8.40;99.90;;;;;;5110125;28;20554;-95
2023/10/21 18:55:29;;;;;;;8.20;3.30;;;8.40;99.90;;;;;;5110266;28;20024;-95
2023/10/21 18:57:55;;;;;;;5.15;2.25;;;8.40;99.90;;;;;;5116005;28;20027;-94
2023/10/21 19:00:22;;;;;;;6.40;1.90;;;8.40;99.90;;;;;;5113382;28;20077;-95
2023/10/21 19:02:49;;;;;;;4.20;1.88;;;8.40;99.90;;;;;;5112383;28;20024;-93
2023/10/21 19:05:15;;;;;;;2.90;1.98;;;8.40;99.90;;;;;;5110798;28;20024;-93
2023/10/21 19:07:42;;;;;;;3.70;1.80;;;8.40;99.90;;;;;;5108459;28;20085;-93
2023/10/21 19:10:09;;;;;;;3.80;1.90;;;8.50;99.90;;;;;;5107522;28;20016;-93
2023/10/21 19:12:34;;;;;;;8.90;3.70;;;8.40;99.90;;;;;;5109370;28;20043;-94
2023/10/21 19:15:00;;;;;;;7.45;3.72;;;8.40;99.90;;;;;;5111337;28;20024;-94
2023/10/21 19:17:25;;;;;;;5.60;2.70;;;8.40;99.90;;;;;;5110882;28;20099;-94
2023/10/21 19:19:52;;;;;;;8.85;3.42;;;8.30;99.90;;;;;;5112099;28;20119;-95
2023/10/21 19:22:19;;;;;;;30.45;19.52;;;8.30;99.90;;;;;;5113257;28;20031;-95
2023/10/21 19:24:45;;;;;;;25.92;14.65;;;8.30;99.90;;;;;;5110529;28;20039;-94
2023/10/21 19:27:11;;;;;;;12.38;6.70;;;8.20;99.90;;;;;;5108362;28;20040;-93
2023/10/21 19:29:36;;;;;;;20.42;12.50;;;8.20;99.90;;;;;;5107760;28;20028;-94
2023/10/21 19:32:03;;;;;;;14.45;8.50;;;8.10;99.90;;;;;;5108636;28;20114;-95
2023/10/21 19:34:28;;;;;;;15.73;8.50;;;8.10;99.90;;;;;;5108683;28;20043;-93
2023/10/21 19:36:55;;;;;;;19.17;11.30;;;8.10;99.90;;;;;;5092552;28;20074;-94
2023/10/21 19:39:26;;;;;;;17.15;8.77;;;8.10;99.90;;;;;;5089028;28;20021;-94
2023/10/21 19:41:55;;;;;;;15.68;9.55;;;8.10;99.90;;;;;;5107952;28;20027;-94
2023/10/21 19:44:22;;;;;;;21.63;12.23;;;8.00;99.90;;;;;;5108627;28;20028;-93
2023/10/21 19:46:47;;;;;;;20.88;9.50;;;7.90;99.90;;;;;;5108606;28;20114;-93
2023/10/21 19:49:18;;;;;;;16.50;9.52;;;7.90;99.90;;;;;;5111058;28;20049;-94
2023/10/21 19:51:44;;;;;;;11.02;7.65;;;7.80;99.90;;;;;;5110968;28;20034;-94
2023/10/21 19:54:09;;;;;;;12.30;5.80;;;7.80;99.90;;;;;;5111798;28;20170;-92
2023/10/21 19:56:35;;;;;;;8.15;5.00;;;7.80;99.90;;;;;;5111147;28;20020;-93
2023/10/21 19:59:03;;;;;;;8.73;5.30;;;7.80;99.90;;;;;;5110849;28;20031;-95
2023/10/21 20:01:29;;;;;;;11.15;5.32;;;7.70;99.90;;;;;;5111822;28;20092;-95
2023/10/21 20:03:56;;;;;;;8.05;4.63;;;7.70;99.90;;;;;;5113444;28;20020;-95
2023/10/21 20:06:22;;;;;;;10.13;5.15;;;7.70;99.90;;;;;;5110986;28;20040;-94
2023/10/21 20:08:49;;;;;;;9.60;4.72;;;7.70;99.90;;;;;;5112146;28;20057;-95
2023/10/21 20:11:20;;;;;;;9.85;4.35;;;7.80;99.90;;;;;;5113255;28;20011;-95
2023/10/21 20:13:45;;;;;;;8.55;4.82;;;7.80;99.90;;;;;;5114870;28;20035;-94
2023/10/21 20:16:11;;;;;;;10.32;5.97;;;7.80;99.90;;;;;;5114245;28;20054;-94
2023/10/21 20:18:43;;;;;;;7.78;4.55;;;7.80;99.90;;;;;;5115321;28;20024;-94
2023/10/21 20:21:11;;;;;;;7.97;4.88;;;7.80;99.90;;;;;;5114423;28;20028;-94
2023/10/21 20:23:39;;;;;;;7.75;4.53;;;7.80;99.90;;;;;;5115168;28;20028;-94
2023/10/21 20:26:07;;;;;;;9.43;4.78;;;7.80;99.90;;;;;;5111642;28;20079;-95
2023/10/21 20:28:39;;;;;;;7.07;4.43;;;7.80;99.90;;;;;;5114448;28;20051;-90
2023/10/21 20:31:05;;;;;;;6.55;3.60;;;7.80;99.90;;;;;;5117718;28;20012;-91
2023/10/21 20:33:31;;;;;;;6.53;3.85;;;7.70;99.90;;;;;;5117646;28;20052;-92
2023/10/21 20:35:58;;;;;;;7.97;3.78;;;7.70;99.90;;;;;;5117461;28;20031;-91
2023/10/21 20:38:26;;;;;;;8.43;4.97;;;7.60;99.90;;;;;;5117760;28;20012;-86
2023/10/21 20:40:53;;;;;;;10.05;5.43;;;7.70;99.90;;;;;;5113675;28;20024;-95
2023/10/21 20:43:21;;;;;;;11.32;5.18;;;7.60;99.90;;;;;;5097738;28;20024;-96
2023/10/21 20:45:56;;;;;;;12.73;6.72;;;7.60;99.90;;;;;;5112792;28;20035;-94
2023/10/21 20:48:24;;;;;;;9.10;4.60;;;7.60;99.90;;;;;;5111610;28;20036;-96
2023/10/21 20:50:50;;;;;;;6.47;3.65;;;7.60;99.90;;;;;;5112444;28;20020;-94
2023/10/21 20:53:16;;;;;;;6.30;3.72;;;7.60;99.90;;;;;;5109892;28;20024;-95
2023/10/21 20:55:43;;;;;;;10.02;4.28;;;7.60;99.90;;;;;;5110936;28;20502;-94
2023/10/21 20:58:09;;;;;;;6.00;3.63;;;7.60;99.90;;;;;;5110480;28;20035;-93
2023/10/21 21:00:40;;;;;;;7.78;5.20;;;7.60;99.90;;;;;;5111503;28;20028;-93
2023/10/21 21:03:06;;;;;;;7.18;3.75;;;7.60;99.90;;;;;;5110443;28;20020;-93
2023/10/21 21:05:33;;;;;;;6.85;4.25;;;7.60;99.90;;;;;;5113861;28;20054;-92
2023/10/21 21:08:04;;;;;;;13.18;4.40;;;7.60;99.90;;;;;;5115129;28;20048;-95
2023/10/21 21:10:55;;;;;;;7.32;3.65;;;7.60;99.90;;;;;;5115369;28;20087;-95